sensor_id;sensor_type;location;lat;lon;timestamp;temperature;humidity
31046;DHT22;17711;54.018;9.300;2022-07-10T00:00:27;16.40;99.90
31046;DHT22;17711;54.018;9.300;2022-07-10T00:02:57;16.50;99.90
31046;DHT22;17711;54.018;9.300;2022-07-10T00:05:26;16.40;99.90
31046;DHT22;17711;54.018;9.300;2022-07-10T00:07:55;16.50;99.90
31046;DHT22;17711;54.018;9.300;2022-07-10T00:10:24;16.40;99.90
31046;DHT22;17711;54.018;9.300;2022-07-10T00:12:55;16.40;99.90
31046;DHT22;17711;54.018;9.300;2022-07-10T00:15:24;16.50;99.90
31046;DHT22;17711;54.018;9.300;2022-07-10T00:17:52;16.40;99.90
31046;DHT22;17711;54.018;9.300;2022-07-10T00:20:22;16.40;99.90
31046;DHT22;17711;54.018;9.300;2022-07-10T00:22:51;16.30;99.90
31046;DHT22;17711;54.018;9.300;2022-07-10T00:25:27;16.20;99.90
31046;DHT22;17711;54.018;9.300;2022-07-10T00:27:57;16.20;99.90
31046;DHT22;17711;54.018;9.300;2022-07-10T00:30:25;16.20;99.90
31046;DHT22;17711;54.018;9.300;2022-07-10T00:32:54;16.20;99.90
31046;DHT22;17711;54.018;9.300;2022-07-10T00:35:23;16.30;99.90
31046;DHT22;17711;54.018;9.300;2022-07-10T00:37:52;16.30;99.90
31046;DHT22;17711;54.018;9.300;2022-07-10T00:40:22;16.30;99.90
31046;DHT22;17711;54.018;9.300;2022-07-10T00:42:50;16.30;99.90
31046;DHT22;17711;54.018;9.300;2022-07-10T00:45:20;16.30;99.90
31046;DHT22;17711;54.018;9.300;2022-07-10T00:47:50;16.40;99.90
31046;DHT22;17711;54.018;9.300;2022-07-10T00:50:19;16.40;99.90
31046;DHT22;17711;54.018;9.300;2022-07-10T00:52:48;16.40;99.90
31046;DHT22;17711;54.018;9.300;2022-07-10T00:55:17;16.50;99.90
31046;DHT22;17711;54.018;9.300;2022-07-10T00:57:45;16.50;99.90
31046;DHT22;17711;54.018;9.300;2022-07-10T01:00:15;16.50;99.90
31046;DHT22;17711;54.018;9.300;2022-07-10T01:02:47;16.40;99.90
31046;DHT22;17711;54.018;9.300;2022-07-10T01:05:16;16.50;99.90
31046;DHT22;17711;54.018;9.300;2022-07-10T01:07:45;16.40;99.90
31046;DHT22;17711;54.018;9.300;2022-07-10T01:10:13;16.40;99.90
31046;DHT22;17711;54.018;9.300;2022-07-10T01:12:43;16.30;99.90
31046;DHT22;17711;54.018;9.300;2022-07-10T01:15:12;16.30;99.90
31046;DHT22;17711;54.018;9.300;2022-07-10T01:17:41;16.20;99.90
31046;DHT22;17711;54.018;9.300;2022-07-10T01:20:12;16.10;99.90
31046;DHT22;17711;54.018;9.300;2022-07-10T01:22:42;16.10;99.90
31046;DHT22;17711;54.018;9.300;2022-07-10T01:25:11;16.00;99.90
31046;DHT22;17711;54.018;9.300;2022-07-10T01:27:40;15.90;99.90
31046;DHT22;17711;54.018;9.300;2022-07-10T01:30:09;15.80;99.90
31046;DHT22;17711;54.018;9.300;2022-07-10T01:32:39;15.70;99.90
31046;DHT22;17711;54.018;9.300;2022-07-10T01:35:09;15.60;99.90
31046;DHT22;17711;54.018;9.300;2022-07-10T01:37:38;15.60;99.90
31046;DHT22;17711;54.018;9.300;2022-07-10T01:40:09;15.60;99.90
31046;DHT22;17711;54.018;9.300;2022-07-10T01:42:38;15.60;99.90
31046;DHT22;17711;54.018;9.300;2022-07-10T01:45:08;15.70;99.90
31046;DHT22;17711;54.018;9.300;2022-07-10T01:47:37;15.70;99.90
31046;DHT22;17711;54.018;9.300;2022-07-10T01:50:06;15.70;99.90
31046;DHT22;17711;54.018;9.300;2022-07-10T01:52:35;15.70;99.90
31046;DHT22;17711;54.018;9.300;2022-07-10T01:55:05;15.80;99.90
31046;DHT22;17711;54.018;9.300;2022-07-10T01:57:35;15.80;99.90
31046;DHT22;17711;54.018;9.300;2022-07-10T02:00:05;15.90;99.90
31046;DHT22;17711;54.018;9.300;2022-07-10T02:02:35;15.90;99.90
31046;DHT22;17711;54.018;9.300;2022-07-10T02:05:04;16.00;99.90
31046;DHT22;17711;54.018;9.300;2022-07-10T02:07:32;16.00;99.90
31046;DHT22;17711;54.018;9.300;2022-07-10T02:10:01;15.90;99.90
31046;DHT22;17711;54.018;9.300;2022-07-10T02:12:29;15.90;99.90
31046;DHT22;17711;54.018;9.300;2022-07-10T02:15:00;16.00;99.90
31046;DHT22;17711;54.018;9.300;2022-07-10T02:17:29;15.90;99.90
31046;DHT22;17711;54.018;9.300;2022-07-10T02:19:58;15.90;99.90
31046;DHT22;17711;54.018;9.300;2022-07-10T02:22:26;15.90;99.90
31046;DHT22;17711;54.018;9.300;2022-07-10T02:24:55;15.80;99.90
31046;DHT22;17711;54.018;9.300;2022-07-10T02:27:24;15.70;99.90
31046;DHT22;17711;54.018;9.300;2022-07-10T02:29:52;15.70;99.90
31046;DHT22;17711;54.018;9.300;2022-07-10T02:32:23;15.70;99.90
31046;DHT22;17711;54.018;9.300;2022-07-10T02:34:51;15.60;99.90
31046;DHT22;17711;54.018;9.300;2022-07-10T02:37:20;15.60;99.90
31046;DHT22;17711;54.018;9.300;2022-07-10T02:39:49;15.50;99.90
31046;DHT22;17711;54.018;9.300;2022-07-10T02:42:18;15.50;99.90
31046;DHT22;17711;54.018;9.300;2022-07-10T02:44:47;15.40;99.90
31046;DHT22;17711;54.018;9.300;2022-07-10T02:47:16;15.50;99.90
31046;DHT22;17711;54.018;9.300;2022-07-10T02:49:46;15.50;99.90
31046;DHT22;17711;54.018;9.300;2022-07-10T02:52:15;15.50;99.90
31046;DHT22;17711;54.018;9.300;2022-07-10T02:54:45;15.50;99.90
31046;DHT22;17711;54.018;9.300;2022-07-10T02:57:13;15.50;99.90
31046;DHT22;17711;54.018;9.300;2022-07-10T02:59:42;15.50;99.90
31046;DHT22;17711;54.018;9.300;2022-07-10T03:02:11;15.50;99.90
31046;DHT22;17711;54.018;9.300;2022-07-10T03:04:39;15.40;99.90
31046;DHT22;17711;54.018;9.300;2022-07-10T03:07:10;15.40;99.90
31046;DHT22;17711;54.018;9.300;2022-07-10T03:09:38;15.40;99.90
31046;DHT22;17711;54.018;9.300;2022-07-10T03:12:07;15.40;99.90
31046;DHT22;17711;54.018;9.300;2022-07-10T03:14:36;15.40;99.90
31046;DHT22;17711;54.018;9.300;2022-07-10T03:17:05;15.40;99.90
31046;DHT22;17711;54.018;9.300;2022-07-10T03:19:33;15.30;99.90
31046;DHT22;17711;54.018;9.300;2022-07-10T03:22:02;15.30;99.90
31046;DHT22;17711;54.018;9.300;2022-07-10T03:24:32;15.30;99.90
31046;DHT22;17711;54.018;9.300;2022-07-10T03:27:01;15.30;99.90
31046;DHT22;17711;54.018;9.300;2022-07-10T03:29:29;15.30;99.90
31046;DHT22;17711;54.018;9.300;2022-07-10T03:31:59;15.30;99.90
31046;DHT22;17711;54.018;9.300;2022-07-10T03:34:28;15.30;99.90
31046;DHT22;17711;54.018;9.300;2022-07-10T03:36:56;15.20;99.90
31046;DHT22;17711;54.018;9.300;2022-07-10T03:39:25;15.20;99.90
31046;DHT22;17711;54.018;9.300;2022-07-10T03:41:55;15.20;99.90
31046;DHT22;17711;54.018;9.300;2022-07-10T03:44:24;15.10;99.90
31046;DHT22;17711;54.018;9.300;2022-07-10T03:46:53;15.10;99.90
31046;DHT22;17711;54.018;9.300;2022-07-10T03:49:22;15.10;99.90
31046;DHT22;17711;54.018;9.300;2022-07-10T03:51:51;15.00;99.90
31046;DHT22;17711;54.018;9.300;2022-07-10T03:54:20;15.00;99.90
31046;DHT22;17711;54.018;9.300;2022-07-10T03:56:49;15.00;99.90
31046;DHT22;17711;54.018;9.300;2022-07-10T03:59:37;14.90;99.90
31046;DHT22;17711;54.018;9.300;2022-07-10T04:02:05;14.90;99.90
31046;DHT22;17711;54.018;9.300;2022-07-10T04:04:34;14.90;99.90
31046;DHT22;17711;54.018;9.300;2022-07-10T04:07:04;14.90;99.90
31046;DHT22;17711;54.018;9.300;2022-07-10T04:09:33;14.90;99.90
31046;DHT22;17711;54.018;9.300;2022-07-10T04:12:01;15.00;99.90
31046;DHT22;17711;54.018;9.300;2022-07-10T04:14:30;15.00;99.90
31046;DHT22;17711;54.018;9.300;2022-07-10T04:17:00;15.00;99.90
31046;DHT22;17711;54.018;9.300;2022-07-10T04:19:29;15.10;99.90
31046;DHT22;17711;54.018;9.300;2022-07-10T04:21:58;15.10;99.90
31046;DHT22;17711;54.018;9.300;2022-07-10T04:24:26;15.10;99.90
31046;DHT22;17711;54.018;9.300;2022-07-10T04:26:55;15.10;99.90
31046;DHT22;17711;54.018;9.300;2022-07-10T04:29:24;15.10;99.90
31046;DHT22;17711;54.018;9.300;2022-07-10T04:31:52;15.10;99.90
31046;DHT22;17711;54.018;9.300;2022-07-10T04:34:23;15.10;99.90
31046;DHT22;17711;54.018;9.300;2022-07-10T04:36:52;15.10;99.90
31046;DHT22;17711;54.018;9.300;2022-07-10T04:39:20;15.20;99.90
31046;DHT22;17711;54.018;9.300;2022-07-10T04:41:49;15.20;99.90
31046;DHT22;17711;54.018;9.300;2022-07-10T04:44:19;15.20;99.90
31046;DHT22;17711;54.018;9.300;2022-07-10T04:46:48;15.20;99.90
31046;DHT22;17711;54.018;9.300;2022-07-10T04:49:17;15.20;99.90
31046;DHT22;17711;54.018;9.300;2022-07-10T04:51:47;15.30;99.90
31046;DHT22;17711;54.018;9.300;2022-07-10T04:54:15;15.40;99.90
31046;DHT22;17711;54.018;9.300;2022-07-10T04:56:45;15.40;99.90
31046;DHT22;17711;54.018;9.300;2022-07-10T04:59:13;15.50;99.90
31046;DHT22;17711;54.018;9.300;2022-07-10T05:01:42;15.50;99.90
31046;DHT22;17711;54.018;9.300;2022-07-10T05:04:11;15.50;99.90
31046;DHT22;17711;54.018;9.300;2022-07-10T05:06:40;15.60;99.90
31046;DHT22;17711;54.018;9.300;2022-07-10T05:09:10;15.70;99.90
31046;DHT22;17711;54.018;9.300;2022-07-10T05:11:39;15.90;99.90
31046;DHT22;17711;54.018;9.300;2022-07-10T05:14:07;15.90;99.90
31046;DHT22;17711;54.018;9.300;2022-07-10T05:16:36;16.00;99.90
31046;DHT22;17711;54.018;9.300;2022-07-10T05:19:05;16.00;99.90
31046;DHT22;17711;54.018;9.300;2022-07-10T05:21:33;16.00;99.90
31046;DHT22;17711;54.018;9.300;2022-07-10T05:24:02;15.90;99.90
31046;DHT22;17711;54.018;9.300;2022-07-10T05:26:32;15.80;99.90
31046;DHT22;17711;54.018;9.300;2022-07-10T05:29:03;15.80;99.90
31046;DHT22;17711;54.018;9.300;2022-07-10T05:31:31;15.90;99.90
31046;DHT22;17711;54.018;9.300;2022-07-10T05:34:00;16.00;99.90
31046;DHT22;17711;54.018;9.300;2022-07-10T05:36:29;16.10;99.90
31046;DHT22;17711;54.018;9.300;2022-07-10T05:38:58;16.20;99.90
31046;DHT22;17711;54.018;9.300;2022-07-10T05:41:26;16.20;99.90
31046;DHT22;17711;54.018;9.300;2022-07-10T05:43:56;16.30;99.90
31046;DHT22;17711;54.018;9.300;2022-07-10T05:46:25;16.30;99.90
31046;DHT22;17711;54.018;9.300;2022-07-10T05:48:54;16.30;99.90
31046;DHT22;17711;54.018;9.300;2022-07-10T05:51:23;16.40;99.90
31046;DHT22;17711;54.018;9.300;2022-07-10T05:54:10;16.40;99.90
31046;DHT22;17711;54.018;9.300;2022-07-10T05:56:39;16.60;99.90
31046;DHT22;17711;54.018;9.300;2022-07-10T05:59:09;16.60;99.90
31046;DHT22;17711;54.018;9.300;2022-07-10T06:01:38;16.60;99.90
31046;DHT22;17711;54.018;9.300;2022-07-10T06:04:06;16.80;99.90
31046;DHT22;17711;54.018;9.300;2022-07-10T06:06:35;16.90;99.90
31046;DHT22;17711;54.018;9.300;2022-07-10T06:09:04;16.90;99.90
31046;DHT22;17711;54.018;9.300;2022-07-10T06:11:33;16.90;99.90
31046;DHT22;17711;54.018;9.300;2022-07-10T06:14:05;16.90;99.90
31046;DHT22;17711;54.018;9.300;2022-07-10T06:16:35;16.90;99.90
31046;DHT22;17711;54.018;9.300;2022-07-10T06:19:04;16.90;99.90
31046;DHT22;17711;54.018;9.300;2022-07-10T06:21:32;17.00;99.90
31046;DHT22;17711;54.018;9.300;2022-07-10T06:24:01;17.00;99.90
31046;DHT22;17711;54.018;9.300;2022-07-10T06:26:30;17.00;99.90
31046;DHT22;17711;54.018;9.300;2022-07-10T06:28:58;17.00;99.90
31046;DHT22;17711;54.018;9.300;2022-07-10T06:31:27;16.90;99.90
31046;DHT22;17711;54.018;9.300;2022-07-10T06:33:57;16.90;99.90
31046;DHT22;17711;54.018;9.300;2022-07-10T06:36:26;16.90;99.90
31046;DHT22;17711;54.018;9.300;2022-07-10T06:38:59;16.90;99.90
31046;DHT22;17711;54.018;9.300;2022-07-10T06:41:28;16.90;99.90
31046;DHT22;17711;54.018;9.300;2022-07-10T06:43:57;17.00;99.90
31046;DHT22;17711;54.018;9.300;2022-07-10T06:46:27;17.00;99.90
31046;DHT22;17711;54.018;9.300;2022-07-10T06:48:58;17.20;99.90
31046;DHT22;17711;54.018;9.300;2022-07-10T06:51:26;17.30;99.90
31046;DHT22;17711;54.018;9.300;2022-07-10T06:53:56;17.30;99.90
31046;DHT22;17711;54.018;9.300;2022-07-10T06:56:25;17.50;99.90
31046;DHT22;17711;54.018;9.300;2022-07-10T06:58:54;17.90;99.90
31046;DHT22;17711;54.018;9.300;2022-07-10T07:01:23;18.10;99.90
31046;DHT22;17711;54.018;9.300;2022-07-10T07:03:51;18.20;99.90
31046;DHT22;17711;54.018;9.300;2022-07-10T07:06:24;18.30;99.90
31046;DHT22;17711;54.018;9.300;2022-07-10T07:08:53;18.40;99.90
31046;DHT22;17711;54.018;9.300;2022-07-10T07:11:22;18.40;99.90
31046;DHT22;17711;54.018;9.300;2022-07-10T07:13:51;18.60;99.90
31046;DHT22;17711;54.018;9.300;2022-07-10T07:16:19;18.60;99.90
31046;DHT22;17711;54.018;9.300;2022-07-10T07:19:04;18.70;99.90
31046;DHT22;17711;54.018;9.300;2022-07-10T07:21:35;18.70;99.90
31046;DHT22;17711;54.018;9.300;2022-07-10T07:24:21;18.70;99.90
31046;DHT22;17711;54.018;9.300;2022-07-10T07:26:50;18.70;99.90
31046;DHT22;17711;54.018;9.300;2022-07-10T07:29:19;18.90;99.90
31046;DHT22;17711;54.018;9.300;2022-07-10T07:31:48;19.00;99.70
31046;DHT22;17711;54.018;9.300;2022-07-10T07:34:16;19.30;99.40
31046;DHT22;17711;54.018;9.300;2022-07-10T07:36:47;19.40;98.20
31046;DHT22;17711;54.018;9.300;2022-07-10T07:39:16;19.50;92.80
31046;DHT22;17711;54.018;9.300;2022-07-10T07:41:46;19.60;92.30
31046;DHT22;17711;54.018;9.300;2022-07-10T07:44:24;19.80;87.80
31046;DHT22;17711;54.018;9.300;2022-07-10T07:47:28;19.90;91.90
31046;DHT22;17711;54.018;9.300;2022-07-10T07:50:33;20.10;87.10
31046;DHT22;17711;54.018;9.300;2022-07-10T07:53:44;20.40;90.30
31046;DHT22;17711;54.018;9.300;2022-07-10T07:56:57;20.50;91.10
31046;DHT22;17711;54.018;9.300;2022-07-10T07:59:26;20.20;90.10
31046;DHT22;17711;54.018;9.300;2022-07-10T08:01:55;20.00;91.30
31046;DHT22;17711;54.018;9.300;2022-07-10T08:04:23;20.00;91.70
31046;DHT22;17711;54.018;9.300;2022-07-10T08:06:52;20.00;91.10
31046;DHT22;17711;54.018;9.300;2022-07-10T08:09:23;19.90;89.60
31046;DHT22;17711;54.018;9.300;2022-07-10T08:11:51;20.00;89.40
31046;DHT22;17711;54.018;9.300;2022-07-10T08:14:20;19.90;89.50
31046;DHT22;17711;54.018;9.300;2022-07-10T08:16:49;20.30;85.90
31046;DHT22;17711;54.018;9.300;2022-07-10T08:19:19;20.60;87.10
31046;DHT22;17711;54.018;9.300;2022-07-10T08:21:47;20.90;93.90
31046;DHT22;17711;54.018;9.300;2022-07-10T08:24:16;21.70;94.50
31046;DHT22;17711;54.018;9.300;2022-07-10T08:26:47;22.10;77.50
31046;DHT22;17711;54.018;9.300;2022-07-10T08:29:16;21.70;71.60
31046;DHT22;17711;54.018;9.300;2022-07-10T08:31:45;21.30;79.40
31046;DHT22;17711;54.018;9.300;2022-07-10T08:34:16;20.90;76.60
31046;DHT22;17711;54.018;9.300;2022-07-10T08:36:46;20.80;80.30
31046;DHT22;17711;54.018;9.300;2022-07-10T08:39:18;20.70;75.10
31046;DHT22;17711;54.018;9.300;2022-07-10T08:41:50;22.00;90.60
31046;DHT22;17711;54.018;9.300;2022-07-10T08:44:19;23.30;71.00
31046;DHT22;17711;54.018;9.300;2022-07-10T08:46:50;24.00;66.80
31046;DHT22;17711;54.018;9.300;2022-07-10T08:49:20;25.10;66.50
31046;DHT22;17711;54.018;9.300;2022-07-10T08:51:53;26.70;60.40
31046;DHT22;17711;54.018;9.300;2022-07-10T08:54:23;28.00;51.90
31046;DHT22;17711;54.018;9.300;2022-07-10T08:56:56;29.00;48.50
31046;DHT22;17711;54.018;9.300;2022-07-10T08:59:26;30.20;51.00
31046;DHT22;17711;54.018;9.300;2022-07-10T09:01:58;30.80;43.30
31046;DHT22;17711;54.018;9.300;2022-07-10T09:04:27;31.20;41.90
31046;DHT22;17711;54.018;9.300;2022-07-10T09:06:57;30.20;39.90
31046;DHT22;17711;54.018;9.300;2022-07-10T09:09:26;28.50;40.00
31046;DHT22;17711;54.018;9.300;2022-07-10T09:11:57;26.80;42.40
31046;DHT22;17711;54.018;9.300;2022-07-10T09:14:27;25.90;45.60
31046;DHT22;17711;54.018;9.300;2022-07-10T09:17:02;27.30;50.30
31046;DHT22;17711;54.018;9.300;2022-07-10T09:19:31;28.00;42.80
31046;DHT22;17711;54.018;9.300;2022-07-10T09:22:04;28.20;45.50
31046;DHT22;17711;54.018;9.300;2022-07-10T09:24:35;29.20;45.00
31046;DHT22;17711;54.018;9.300;2022-07-10T09:27:07;29.80;40.50
31046;DHT22;17711;54.018;9.300;2022-07-10T09:29:46;28.70;38.60
31046;DHT22;17711;54.018;9.300;2022-07-10T09:32:16;28.30;42.30
31046;DHT22;17711;54.018;9.300;2022-07-10T09:34:50;27.50;43.90
31046;DHT22;17711;54.018;9.300;2022-07-10T09:37:41;27.20;45.50
31046;DHT22;17711;54.018;9.300;2022-07-10T09:40:10;27.00;44.40
31046;DHT22;17711;54.018;9.300;2022-07-10T09:42:43;26.60;45.40
31046;DHT22;17711;54.018;9.300;2022-07-10T09:45:19;27.20;46.70
31046;DHT22;17711;54.018;9.300;2022-07-10T09:47:57;27.60;42.60
31046;DHT22;17711;54.018;9.300;2022-07-10T09:50:31;27.40;42.80
31046;DHT22;17711;54.018;9.300;2022-07-10T09:53:02;26.90;41.90
31046;DHT22;17711;54.018;9.300;2022-07-10T09:55:32;27.70;44.80
31046;DHT22;17711;54.018;9.300;2022-07-10T09:58:04;29.00;39.80
31046;DHT22;17711;54.018;9.300;2022-07-10T10:00:34;30.10;40.70
31046;DHT22;17711;54.018;9.300;2022-07-10T10:03:04;31.20;39.30
31046;DHT22;17711;54.018;9.300;2022-07-10T10:05:36;30.90;37.80
31046;DHT22;17711;54.018;9.300;2022-07-10T10:08:10;29.40;38.00
31046;DHT22;17711;54.018;9.300;2022-07-10T10:10:45;29.80;41.70
31046;DHT22;17711;54.018;9.300;2022-07-10T10:13:20;31.60;38.30
31046;DHT22;17711;54.018;9.300;2022-07-10T10:15:51;32.00;40.30
31046;DHT22;17711;54.018;9.300;2022-07-10T10:18:21;33.10;38.60
31046;DHT22;17711;54.018;9.300;2022-07-10T10:20:52;32.70;33.40
31046;DHT22;17711;54.018;9.300;2022-07-10T10:23:22;31.50;35.90
31046;DHT22;17711;54.018;9.300;2022-07-10T10:25:54;30.10;38.20
31046;DHT22;17711;54.018;9.300;2022-07-10T10:28:25;30.10;41.70
31046;DHT22;17711;54.018;9.300;2022-07-10T10:30:57;30.70;41.40
31046;DHT22;17711;54.018;9.300;2022-07-10T10:33:45;30.30;38.10
31046;DHT22;17711;54.018;9.300;2022-07-10T10:39:19;32.00;42.60
31046;DHT22;17711;54.018;9.300;2022-07-10T10:41:53;32.90;35.70
31046;DHT22;17711;54.018;9.300;2022-07-10T10:44:28;31.40;34.40
31046;DHT22;17711;54.018;9.300;2022-07-10T10:47:04;30.30;40.20
31046;DHT22;17711;54.018;9.300;2022-07-10T10:49:50;29.90;38.80
31046;DHT22;17711;54.018;9.300;2022-07-10T10:52:20;29.90;45.60
31046;DHT22;17711;54.018;9.300;2022-07-10T10:55:08;31.50;41.60
31046;DHT22;17711;54.018;9.300;2022-07-10T10:57:46;32.20;36.80
31046;DHT22;17711;54.018;9.300;2022-07-10T11:00:32;30.60;35.60
31046;DHT22;17711;54.018;9.300;2022-07-10T11:03:18;29.90;38.80
31046;DHT22;17711;54.018;9.300;2022-07-10T11:05:49;31.00;41.80
31046;DHT22;17711;54.018;9.300;2022-07-10T11:08:38;31.40;38.10
31046;DHT22;17711;54.018;9.300;2022-07-10T11:11:39;32.90;35.20
31046;DHT22;17711;54.018;9.300;2022-07-10T11:14:10;33.00;36.40
31046;DHT22;17711;54.018;9.300;2022-07-10T11:16:51;32.50;37.60
31046;DHT22;17711;54.018;9.300;2022-07-10T11:19:23;33.20;36.30
31046;DHT22;17711;54.018;9.300;2022-07-10T11:22:05;32.70;32.10
31046;DHT22;17711;54.018;9.300;2022-07-10T11:24:45;30.90;35.80
31046;DHT22;17711;54.018;9.300;2022-07-10T11:27:28;29.70;39.90
31046;DHT22;17711;54.018;9.300;2022-07-10T11:29:59;28.60;37.10
31046;DHT22;17711;54.018;9.300;2022-07-10T11:32:29;27.80;40.40
31046;DHT22;17711;54.018;9.300;2022-07-10T11:34:58;27.00;41.60
31046;DHT22;17711;54.018;9.300;2022-07-10T11:37:27;26.60;42.60
31046;DHT22;17711;54.018;9.300;2022-07-10T11:40:10;26.10;44.90
31046;DHT22;17711;54.018;9.300;2022-07-10T11:42:51;25.70;46.00
31046;DHT22;17711;54.018;9.300;2022-07-10T11:45:25;25.30;47.30
31046;DHT22;17711;54.018;9.300;2022-07-10T11:47:56;25.00;48.80
31046;DHT22;17711;54.018;9.300;2022-07-10T11:50:25;24.90;49.70
31046;DHT22;17711;54.018;9.300;2022-07-10T11:52:55;25.00;50.00
31046;DHT22;17711;54.018;9.300;2022-07-10T11:55:27;24.80;47.70
31046;DHT22;17711;54.018;9.300;2022-07-10T11:58:16;24.50;52.50
31046;DHT22;17711;54.018;9.300;2022-07-10T12:00:58;24.20;54.00
31046;DHT22;17711;54.018;9.300;2022-07-10T12:03:30;23.80;54.10
31046;DHT22;17711;54.018;9.300;2022-07-10T12:06:03;23.80;54.00
31046;DHT22;17711;54.018;9.300;2022-07-10T12:08:42;24.20;54.20
31046;DHT22;17711;54.018;9.300;2022-07-10T12:11:13;24.50;53.80
31046;DHT22;17711;54.018;9.300;2022-07-10T12:13:42;24.40;52.40
31046;DHT22;17711;54.018;9.300;2022-07-10T12:16:11;24.40;54.50
31046;DHT22;17711;54.018;9.300;2022-07-10T12:18:42;24.80;55.00
31046;DHT22;17711;54.018;9.300;2022-07-10T12:21:12;25.10;54.90
31046;DHT22;17711;54.018;9.300;2022-07-10T12:23:44;25.30;52.10
31046;DHT22;17711;54.018;9.300;2022-07-10T12:26:13;25.00;51.70
31046;DHT22;17711;54.018;9.300;2022-07-10T12:28:49;25.40;56.30
31046;DHT22;17711;54.018;9.300;2022-07-10T12:31:25;26.00;53.60
31046;DHT22;17711;54.018;9.300;2022-07-10T12:34:00;26.00;50.00
31046;DHT22;17711;54.018;9.300;2022-07-10T12:36:46;25.70;53.60
31046;DHT22;17711;54.018;9.300;2022-07-10T12:39:16;25.30;52.10
31046;DHT22;17711;54.018;9.300;2022-07-10T12:41:58;25.60;57.10
31046;DHT22;17711;54.018;9.300;2022-07-10T12:44:36;26.30;55.40
31046;DHT22;17711;54.018;9.300;2022-07-10T12:47:06;26.70;53.10
31046;DHT22;17711;54.018;9.300;2022-07-10T12:49:51;26.70;49.90
31046;DHT22;17711;54.018;9.300;2022-07-10T12:52:25;26.30;50.60
31046;DHT22;17711;54.018;9.300;2022-07-10T12:55:08;26.10;53.20
31046;DHT22;17711;54.018;9.300;2022-07-10T12:57:56;26.30;53.30
31046;DHT22;17711;54.018;9.300;2022-07-10T13:00:27;25.80;50.10
31046;DHT22;17711;54.018;9.300;2022-07-10T13:02:58;25.40;51.50
31046;DHT22;17711;54.018;9.300;2022-07-10T13:05:34;25.00;51.60
31046;DHT22;17711;54.018;9.300;2022-07-10T13:08:10;24.90;53.80
31046;DHT22;17711;54.018;9.300;2022-07-10T13:10:43;25.30;58.60
31046;DHT22;17711;54.018;9.300;2022-07-10T13:13:12;26.40;55.30
31046;DHT22;17711;54.018;9.300;2022-07-10T13:15:41;26.90;51.90
31046;DHT22;17711;54.018;9.300;2022-07-10T13:18:14;27.10;53.40
31046;DHT22;17711;54.018;9.300;2022-07-10T13:20:48;26.90;50.40
31046;DHT22;17711;54.018;9.300;2022-07-10T13:23:26;26.40;47.60
31046;DHT22;17711;54.018;9.300;2022-07-10T13:25:55;25.70;50.30
31046;DHT22;17711;54.018;9.300;2022-07-10T13:28:27;25.60;53.70
31046;DHT22;17711;54.018;9.300;2022-07-10T13:30:56;25.50;51.20
31046;DHT22;17711;54.018;9.300;2022-07-10T13:33:25;25.20;55.20
31046;DHT22;17711;54.018;9.300;2022-07-10T13:35:59;26.00;58.50
31046;DHT22;17711;54.018;9.300;2022-07-10T13:38:29;27.30;54.70
31046;DHT22;17711;54.018;9.300;2022-07-10T13:40:59;28.10;49.20
31046;DHT22;17711;54.018;9.300;2022-07-10T13:43:28;27.80;45.60
31046;DHT22;17711;54.018;9.300;2022-07-10T13:45:57;27.40;49.20
31046;DHT22;17711;54.018;9.300;2022-07-10T13:48:27;27.50;45.70
31046;DHT22;17711;54.018;9.300;2022-07-10T13:50:58;26.90;47.30
31046;DHT22;17711;54.018;9.300;2022-07-10T13:53:27;26.70;49.00
31046;DHT22;17711;54.018;9.300;2022-07-10T13:55:56;26.60;49.70
31046;DHT22;17711;54.018;9.300;2022-07-10T13:58:26;26.50;47.60
31046;DHT22;17711;54.018;9.300;2022-07-10T14:00:55;26.50;50.10
31046;DHT22;17711;54.018;9.300;2022-07-10T14:03:26;26.60;47.80
31046;DHT22;17711;54.018;9.300;2022-07-10T14:05:55;26.80;50.00
31046;DHT22;17711;54.018;9.300;2022-07-10T14:08:26;27.30;48.50
31046;DHT22;17711;54.018;9.300;2022-07-10T14:10:55;27.70;49.00
31046;DHT22;17711;54.018;9.300;2022-07-10T14:13:24;28.30;48.10
31046;DHT22;17711;54.018;9.300;2022-07-10T14:15:53;28.70;43.80
31046;DHT22;17711;54.018;9.300;2022-07-10T14:18:23;29.00;45.70
31046;DHT22;17711;54.018;9.300;2022-07-10T14:21:06;29.00;43.90
31046;DHT22;17711;54.018;9.300;2022-07-10T14:23:38;29.30;43.60
31046;DHT22;17711;54.018;9.300;2022-07-10T14:26:09;29.50;42.80
31046;DHT22;17711;54.018;9.300;2022-07-10T14:28:37;28.60;42.60
31046;DHT22;17711;54.018;9.300;2022-07-10T14:31:07;28.00;42.80
31046;DHT22;17711;54.018;9.300;2022-07-10T14:33:36;27.90;43.00
31046;DHT22;17711;54.018;9.300;2022-07-10T14:36:06;28.40;46.00
31046;DHT22;17711;54.018;9.300;2022-07-10T14:38:34;29.00;46.30
31046;DHT22;17711;54.018;9.300;2022-07-10T14:41:06;29.30;43.30
31046;DHT22;17711;54.018;9.300;2022-07-10T14:43:34;28.90;40.50
31046;DHT22;17711;54.018;9.300;2022-07-10T14:46:05;28.90;43.90
31046;DHT22;17711;54.018;9.300;2022-07-10T14:48:39;28.90;42.20
31046;DHT22;17711;54.018;9.300;2022-07-10T14:51:12;28.50;43.10
31046;DHT22;17711;54.018;9.300;2022-07-10T14:53:43;28.60;44.70
31046;DHT22;17711;54.018;9.300;2022-07-10T14:56:15;28.90;42.90
31046;DHT22;17711;54.018;9.300;2022-07-10T14:58:45;29.00;42.20
31046;DHT22;17711;54.018;9.300;2022-07-10T15:01:34;29.30;43.60
31046;DHT22;17711;54.018;9.300;2022-07-10T15:04:03;29.50;43.90
31046;DHT22;17711;54.018;9.300;2022-07-10T15:06:32;29.60;40.90
31046;DHT22;17711;54.018;9.300;2022-07-10T15:09:01;29.80;43.40
31046;DHT22;17711;54.018;9.300;2022-07-10T15:11:32;29.90;44.10
31046;DHT22;17711;54.018;9.300;2022-07-10T15:14:01;29.50;40.50
31046;DHT22;17711;54.018;9.300;2022-07-10T15:16:32;28.80;44.00
31046;DHT22;17711;54.018;9.300;2022-07-10T15:19:04;27.90;43.10
31046;DHT22;17711;54.018;9.300;2022-07-10T15:21:38;27.60;46.60
31046;DHT22;17711;54.018;9.300;2022-07-10T15:24:08;27.90;47.00
31046;DHT22;17711;54.018;9.300;2022-07-10T15:26:40;28.30;49.50
31046;DHT22;17711;54.018;9.300;2022-07-10T15:29:09;28.80;44.30
31046;DHT22;17711;54.018;9.300;2022-07-10T15:31:41;28.60;42.30
31046;DHT22;17711;54.018;9.300;2022-07-10T15:34:11;28.20;43.60
31046;DHT22;17711;54.018;9.300;2022-07-10T15:36:45;27.50;44.90
31046;DHT22;17711;54.018;9.300;2022-07-10T15:39:19;27.00;46.00
31046;DHT22;17711;54.018;9.300;2022-07-10T15:41:50;27.00;49.80
31046;DHT22;17711;54.018;9.300;2022-07-10T15:44:23;27.00;48.20
31046;DHT22;17711;54.018;9.300;2022-07-10T15:46:55;27.00;46.20
31046;DHT22;17711;54.018;9.300;2022-07-10T15:49:27;26.90;44.80
31046;DHT22;17711;54.018;9.300;2022-07-10T15:51:59;26.80;48.40
31046;DHT22;17711;54.018;9.300;2022-07-10T15:54:30;26.80;47.50
31046;DHT22;17711;54.018;9.300;2022-07-10T15:57:02;26.80;49.60
31046;DHT22;17711;54.018;9.300;2022-07-10T15:59:36;26.20;46.50